sensor_id;sensor_type;location;lat;lon;timestamp;pressure;altitude;pressure_sealevel;temperature;humidity
23118;BME280;11728;50.624;6.014;2022-07-17T00:02:46;99348.00;;;13.50;65.32
23118;BME280;11728;50.624;6.014;2022-07-17T00:08:00;99351.72;;;13.40;65.31
23118;BME280;11728;50.624;6.014;2022-07-17T00:13:16;99353.56;;;13.35;65.46
23118;BME280;11728;50.624;6.014;2022-07-17T00:18:16;99338.69;;;13.26;66.19
23118;BME280;11728;50.624;6.014;2022-07-17T00:23:35;99340.63;;;13.15;66.59
23118;BME280;11728;50.624;6.014;2022-07-17T00:28:48;99330.25;;;13.01;67.53
23118;BME280;11728;50.624;6.014;2022-07-17T00:33:48;99332.22;;;12.90;68.08
23118;BME280;11728;50.624;6.014;2022-07-17T00:39:04;99335.78;;;12.89;67.95
23118;BME280;11728;50.624;6.014;2022-07-17T00:44:17;99333.22;;;12.80;68.42
23118;BME280;11728;50.624;6.014;2022-07-17T00:49:18;99336.88;;;12.71;68.87
23118;BME280;11728;50.624;6.014;2022-07-17T00:54:38;99331.72;;;12.62;69.45
23118;BME280;11728;50.624;6.014;2022-07-17T00:59:50;99327.38;;;12.57;69.70
23118;BME280;11728;50.624;6.014;2022-07-17T01:04:50;99323.91;;;12.50;69.89
23118;BME280;11728;50.624;6.014;2022-07-17T01:10:07;99323.13;;;12.42;70.39
23118;BME280;11728;50.624;6.014;2022-07-17T01:15:20;99310.88;;;12.35;70.69
23118;BME280;11728;50.624;6.014;2022-07-17T01:20:20;99312.81;;;12.25;71.26
23118;BME280;11728;50.624;6.014;2022-07-17T01:25:39;99300.66;;;12.09;72.22
23118;BME280;11728;50.624;6.014;2022-07-17T01:30:51;99300.72;;;12.03;72.67
23118;BME280;11728;50.624;6.014;2022-07-17T01:35:52;99300.75;;;12.00;72.88
23118;BME280;11728;50.624;6.014;2022-07-17T01:41:11;99317.53;;;11.99;72.96
23118;BME280;11728;50.624;6.014;2022-07-17T01:46:21;99311.41;;;11.97;73.00
23118;BME280;11728;50.624;6.014;2022-07-17T01:51:22;99306.22;;;11.88;73.21
23118;BME280;11728;50.624;6.014;2022-07-17T01:56:37;99304.47;;;11.84;73.45
23118;BME280;11728;50.624;6.014;2022-07-17T02:01:53;99294.03;;;11.75;73.82
23118;BME280;11728;50.624;6.014;2022-07-17T02:06:58;99303.78;;;11.68;74.12
23118;BME280;11728;50.624;6.014;2022-07-17T02:12:14;99308.25;;;11.65;74.38
23118;BME280;11728;50.624;6.014;2022-07-17T02:17:24;99305.66;;;11.57;74.92
23118;BME280;11728;50.624;6.014;2022-07-17T02:22:28;99303.09;;;11.47;75.56
23118;BME280;11728;50.624;6.014;2022-07-17T02:27:41;99276.78;;;11.35;75.90
23118;BME280;11728;50.624;6.014;2022-07-17T02:32:54;99304.16;;;11.31;76.05
23118;BME280;11728;50.624;6.014;2022-07-17T02:37:59;99301.38;;;11.43;75.62
23118;BME280;11728;50.624;6.014;2022-07-17T02:43:12;99298.66;;;11.50;74.52
23118;BME280;11728;50.624;6.014;2022-07-17T02:48:28;99312.78;;;11.49;74.40
23118;BME280;11728;50.624;6.014;2022-07-17T02:53:32;99316.31;;;11.47;74.49
23118;BME280;11728;50.624;6.014;2022-07-17T02:58:45;99305.78;;;11.44;74.44
23118;BME280;11728;50.624;6.014;2022-07-17T03:03:58;99307.66;;;11.35;75.07
23118;BME280;11728;50.624;6.014;2022-07-17T03:08:58;99309.47;;;11.25;75.48
23118;BME280;11728;50.624;6.014;2022-07-17T03:14:17;99315.75;;;11.15;76.27
23118;BME280;11728;50.624;6.014;2022-07-17T03:19:30;99304.38;;;11.07;76.68
23118;BME280;11728;50.624;6.014;2022-07-17T03:24:30;99307.94;;;11.05;77.18
23118;BME280;11728;50.624;6.014;2022-07-17T03:29:49;99309.75;;;10.97;77.92
23118;BME280;11728;50.624;6.014;2022-07-17T03:35:02;99308.03;;;10.90;78.52
23118;BME280;11728;50.624;6.014;2022-07-17T03:40:06;99308.91;;;10.87;79.18
23118;BME280;11728;50.624;6.014;2022-07-17T03:45:19;99301.91;;;10.83;79.60
23118;BME280;11728;50.624;6.014;2022-07-17T03:50:34;99305.50;;;10.79;79.70
23118;BME280;11728;50.624;6.014;2022-07-17T03:55:38;99307.25;;;10.77;79.83
23118;BME280;11728;50.624;6.014;2022-07-17T04:00:54;99316.00;;;10.82;79.75
23118;BME280;11728;50.624;6.014;2022-07-17T04:06:07;99318.63;;;10.87;79.99
23118;BME280;11728;50.624;6.014;2022-07-17T04:11:07;99303.59;;;10.93;79.81
23118;BME280;11728;50.624;6.014;2022-07-17T04:16:24;99291.28;;;10.92;80.09
23118;BME280;11728;50.624;6.014;2022-07-17T04:21:40;99304.41;;;11.03;80.04
23118;BME280;11728;50.624;6.014;2022-07-17T04:26:41;99312.16;;;11.22;79.63
23118;BME280;11728;50.624;6.014;2022-07-17T04:31:57;99320.78;;;11.39;79.23
23118;BME280;11728;50.624;6.014;2022-07-17T04:37:12;99318.94;;;11.50;78.99
23118;BME280;11728;50.624;6.014;2022-07-17T04:42:14;99328.56;;;11.58;78.76
23118;BME280;11728;50.624;6.014;2022-07-17T04:47:27;99312.69;;;11.61;78.84
23118;BME280;11728;50.624;6.014;2022-07-17T04:52:43;99321.31;;;11.77;78.47
23118;BME280;11728;50.624;6.014;2022-07-17T04:57:44;99321.03;;;12.04;77.45
23118;BME280;11728;50.624;6.014;2022-07-17T05:03:02;99338.25;;;12.36;76.88
23118;BME280;11728;50.624;6.014;2022-07-17T05:08:15;99335.28;;;12.58;76.11
23118;BME280;11728;50.624;6.014;2022-07-17T05:13:19;99333.16;;;12.84;75.46
23118;BME280;11728;50.624;6.014;2022-07-17T05:18:32;99328.47;;;13.03;74.62
23118;BME280;11728;50.624;6.014;2022-07-17T05:23:51;99321.19;;;13.15;73.65
23118;BME280;11728;50.624;6.014;2022-07-17T05:28:52;99328.69;;;13.42;73.16
23118;BME280;11728;50.624;6.014;2022-07-17T05:34:07;99343.59;;;13.95;71.88
23118;BME280;11728;50.624;6.014;2022-07-17T05:39:20;99347.91;;;14.46;71.12
23118;BME280;11728;50.624;6.014;2022-07-17T05:44:23;99345.72;;;15.02;69.74
23118;BME280;11728;50.624;6.014;2022-07-17T05:49:40;99337.06;;;15.31;68.60
23118;BME280;11728;50.624;6.014;2022-07-17T05:54:56;99325.72;;;15.57;67.71
23118;BME280;11728;50.624;6.014;2022-07-17T05:59:56;99328.50;;;15.86;66.86
23118;BME280;11728;50.624;6.014;2022-07-17T06:05:12;99319.25;;;16.60;65.27
23118;BME280;11728;50.624;6.014;2022-07-17T06:10:26;99335.00;;;17.23;64.41
23118;BME280;11728;50.624;6.014;2022-07-17T06:15:30;99335.56;;;17.60;63.71
23118;BME280;11728;50.624;6.014;2022-07-17T06:20:45;99339.63;;;17.96;62.05
23118;BME280;11728;50.624;6.014;2022-07-17T06:26:01;99340.09;;;18.55;60.06
23118;BME280;11728;50.624;6.014;2022-07-17T06:31:02;99342.25;;;19.15;58.45
23118;BME280;11728;50.624;6.014;2022-07-17T06:36:17;99339.03;;;19.69;56.81
23118;BME280;11728;50.624;6.014;2022-07-17T06:41:30;99337.69;;;20.20;55.09
23118;BME280;11728;50.624;6.014;2022-07-17T06:46:40;99339.88;;;20.69;54.26
23118;BME280;11728;50.624;6.014;2022-07-17T06:51:53;99325.03;;;21.17;53.88
23118;BME280;11728;50.624;6.014;2022-07-17T06:57:06;99318.56;;;21.40;53.53
23118;BME280;11728;50.624;6.014;2022-07-17T07:02:08;99316.75;;;21.92;52.47
23118;BME280;11728;50.624;6.014;2022-07-17T07:07:27;99310.66;;;22.55;50.87
23118;BME280;11728;50.624;6.014;2022-07-17T07:12:39;99307.06;;;23.04;49.03
23118;BME280;11728;50.624;6.014;2022-07-17T07:17:43;99306.19;;;23.63;48.52
23118;BME280;11728;50.624;6.014;2022-07-17T07:22:56;99306.03;;;24.11;45.95
23118;BME280;11728;50.624;6.014;2022-07-17T07:28:12;99310.16;;;24.60;43.59
23118;BME280;11728;50.624;6.014;2022-07-17T07:33:12;99316.13;;;25.06;41.71
23118;BME280;11728;50.624;6.014;2022-07-17T07:38:32;99323.22;;;25.49;40.90
23118;BME280;11728;50.624;6.014;2022-07-17T07:43:51;99314.63;;;25.83;39.31
23118;BME280;11728;50.624;6.014;2022-07-17T07:48:58;99320.59;;;26.51;38.42
23118;BME280;11728;50.624;6.014;2022-07-17T07:54:14;99312.09;;;27.18;36.78
23118;BME280;11728;50.624;6.014;2022-07-17T07:59:29;99315.03;;;27.87;34.99
23118;BME280;11728;50.624;6.014;2022-07-17T08:04:32;99319.66;;;28.66;33.98
23118;BME280;11728;50.624;6.014;2022-07-17T08:09:45;99324.28;;;29.20;33.30
23118;BME280;11728;50.624;6.014;2022-07-17T08:15:01;99326.44;;;29.69;33.08
23118;BME280;11728;50.624;6.014;2022-07-17T08:20:05;99320.41;;;30.08;32.08
23118;BME280;11728;50.624;6.014;2022-07-17T08:25:17;99325.44;;;30.44;32.13
23118;BME280;11728;50.624;6.014;2022-07-17T08:30:36;99329.97;;;30.75;31.04
23118;BME280;11728;50.624;6.014;2022-07-17T08:35:37;99325.94;;;31.20;30.13
23118;BME280;11728;50.624;6.014;2022-07-17T08:40:53;99332.44;;;31.67;29.54
23118;BME280;11728;50.624;6.014;2022-07-17T08:46:11;99342.16;;;32.00;28.97
23118;BME280;11728;50.624;6.014;2022-07-17T08:51:15;99349.84;;;32.43;27.68
23118;BME280;11728;50.624;6.014;2022-07-17T08:56:25;99359.47;;;32.76;27.58
23118;BME280;11728;50.624;6.014;2022-07-17T09:01:38;99351.34;;;33.02;27.00
23118;BME280;11728;50.624;6.014;2022-07-17T09:06:41;99351.31;;;33.21;27.23
23118;BME280;11728;50.624;6.014;2022-07-17T09:11:58;99354.13;;;33.39;27.15
23118;BME280;11728;50.624;6.014;2022-07-17T09:17:11;99351.16;;;33.59;26.29
23118;BME280;11728;50.624;6.014;2022-07-17T09:22:22;99338.63;;;33.57;26.90
23118;BME280;11728;50.624;6.014;2022-07-17T09:27:31;99339.38;;;33.76;26.65
23118;BME280;11728;50.624;6.014;2022-07-17T09:32:48;99339.63;;;34.09;26.39
23118;BME280;11728;50.624;6.014;2022-07-17T09:37:54;99331.88;;;34.57;26.19
23118;BME280;11728;50.624;6.014;2022-07-17T09:43:01;99332.88;;;34.99;25.25
23118;BME280;11728;50.624;6.014;2022-07-17T09:48:19;99328.19;;;35.09;25.20
23118;BME280;11728;50.624;6.014;2022-07-17T09:53:21;99328.84;;;35.44;24.03
23118;BME280;11728;50.624;6.014;2022-07-17T09:58:35;99328.31;;;35.66;23.88
23118;BME280;11728;50.624;6.014;2022-07-17T10:03:50;99339.75;;;35.87;23.32
23118;BME280;11728;50.624;6.014;2022-07-17T10:08:54;99344.69;;;36.32;22.81
23118;BME280;11728;50.624;6.014;2022-07-17T10:14:11;99334.16;;;36.28;22.52
23118;BME280;11728;50.624;6.014;2022-07-17T10:19:24;99340.19;;;36.39;22.30
23118;BME280;11728;50.624;6.014;2022-07-17T10:24:26;99341.72;;;35.69;22.70
23118;BME280;11728;50.624;6.014;2022-07-17T10:29:38;99338.00;;;35.78;22.91
23118;BME280;11728;50.624;6.014;2022-07-17T10:34:53;99339.81;;;36.10;22.73
23118;BME280;11728;50.624;6.014;2022-07-17T10:39:56;99341.91;;;36.24;22.50
23118;BME280;11728;50.624;6.014;2022-07-17T10:45:11;99339.16;;;36.32;21.74
23118;BME280;11728;50.624;6.014;2022-07-17T10:50:26;99335.78;;;36.46;22.01
23118;BME280;11728;50.624;6.014;2022-07-17T10:55:28;99331.28;;;36.85;22.10
23118;BME280;11728;50.624;6.014;2022-07-17T11:00:38;99339.94;;;36.58;21.60
23118;BME280;11728;50.624;6.014;2022-07-17T11:05:52;99328.53;;;37.17;21.31
23118;BME280;11728;50.624;6.014;2022-07-17T11:10:56;99334.34;;;37.38;21.04
23118;BME280;11728;50.624;6.014;2022-07-17T11:16:10;99333.50;;;37.29;20.46
23118;BME280;11728;50.624;6.014;2022-07-17T11:21:26;99331.41;;;37.39;20.27
23118;BME280;11728;50.624;6.014;2022-07-17T11:26:26;99327.69;;;37.78;20.11
23118;BME280;11728;50.624;6.014;2022-07-17T11:31:41;99322.75;;;37.50;20.41
23118;BME280;11728;50.624;6.014;2022-07-17T11:36:59;99316.88;;;37.53;21.61
23118;BME280;11728;50.624;6.014;2022-07-17T11:42:00;99322.69;;;37.12;21.44
23118;BME280;11728;50.624;6.014;2022-07-17T11:47:20;99316.78;;;37.15;21.69
23118;BME280;11728;50.624;6.014;2022-07-17T11:52:42;99311.22;;;37.47;20.60
23118;BME280;11728;50.624;6.014;2022-07-17T11:57:48;99312.31;;;37.76;20.33
23118;BME280;11728;50.624;6.014;2022-07-17T12:03:01;99312.78;;;37.41;20.28
23118;BME280;11728;50.624;6.014;2022-07-17T12:08:07;99305.63;;;37.63;20.09
23118;BME280;11728;50.624;6.014;2022-07-17T12:13:08;99304.06;;;38.29;19.47
23118;BME280;11728;50.624;6.014;2022-07-17T12:18:27;99295.38;;;38.09;20.40
23118;BME280;11728;50.624;6.014;2022-07-17T12:23:38;99291.97;;;38.07;19.43
23118;BME280;11728;50.624;6.014;2022-07-17T12:28:39;99279.72;;;38.02;19.92
23118;BME280;11728;50.624;6.014;2022-07-17T12:33:46;99267.81;;;38.01;19.81
23118;BME280;11728;50.624;6.014;2022-07-17T12:39:03;99275.75;;;38.04;19.87
23118;BME280;11728;50.624;6.014;2022-07-17T12:44:06;99268.44;;;38.11;19.64
23118;BME280;11728;50.624;6.014;2022-07-17T12:49:16;99265.13;;;38.38;20.00
23118;BME280;11728;50.624;6.014;2022-07-17T12:54:34;99268.16;;;38.51;19.25
23118;BME280;11728;50.624;6.014;2022-07-17T12:59:35;99266.63;;;38.04;18.66
23118;BME280;11728;50.624;6.014;2022-07-17T13:04:48;99251.44;;;37.70;18.93
23118;BME280;11728;50.624;6.014;2022-07-17T13:10:01;99246.06;;;37.76;18.69
23118;BME280;11728;50.624;6.014;2022-07-17T13:15:08;99244.34;;;37.29;19.54
23118;BME280;11728;50.624;6.014;2022-07-17T13:20:24;99240.97;;;37.19;19.44
23118;BME280;11728;50.624;6.014;2022-07-17T13:25:33;99247.00;;;37.22;19.60
23118;BME280;11728;50.624;6.014;2022-07-17T13:31:08;99236.53;;;37.10;18.70
23118;BME280;11728;50.624;6.014;2022-07-17T13:37:28;99242.78;;;36.32;18.75
23118;BME280;11728;50.624;6.014;2022-07-17T13:42:55;99254.06;;;35.74;19.28
23118;BME280;11728;50.624;6.014;2022-07-17T13:48:14;99246.56;;;35.09;21.65
23118;BME280;11728;50.624;6.014;2022-07-17T13:53:32;99240.25;;;34.83;22.33
23118;BME280;11728;50.624;6.014;2022-07-17T13:58:36;99239.44;;;34.48;21.63
23118;BME280;11728;50.624;6.014;2022-07-17T14:03:52;99240.28;;;34.23;21.99
23118;BME280;11728;50.624;6.014;2022-07-17T14:09:05;99245.59;;;33.90;22.49
23118;BME280;11728;50.624;6.014;2022-07-17T14:14:06;99232.22;;;33.87;22.21
23118;BME280;11728;50.624;6.014;2022-07-17T14:19:19;99226.56;;;33.71;22.42
23118;BME280;11728;50.624;6.014;2022-07-17T14:24:35;99216.84;;;33.76;23.05
23118;BME280;11728;50.624;6.014;2022-07-17T14:29:38;99221.00;;;33.63;22.58
23118;BME280;11728;50.624;6.014;2022-07-17T14:34:54;99212.78;;;33.63;21.89
23118;BME280;11728;50.624;6.014;2022-07-17T14:40:07;99207.47;;;33.52;22.63
23118;BME280;11728;50.624;6.014;2022-07-17T14:45:09;99204.25;;;33.39;22.99
23118;BME280;11728;50.624;6.014;2022-07-17T14:50:26;99204.69;;;33.17;22.64
23118;BME280;11728;50.624;6.014;2022-07-17T14:55:42;99198.66;;;33.04;22.63
23118;BME280;11728;50.624;6.014;2022-07-17T15:00:42;99189.56;;;32.77;22.42
23118;BME280;11728;50.624;6.014;2022-07-17T15:05:59;99177.22;;;32.73;23.39
23118;BME280;11728;50.624;6.014;2022-07-17T15:11:15;99170.03;;;32.63;22.82
23118;BME280;11728;50.624;6.014;2022-07-17T15:16:15;99166.13;;;32.56;23.15
23118;BME280;11728;50.624;6.014;2022-07-17T15:21:29;99160.88;;;32.45;23.53
23118;BME280;11728;50.624;6.014;2022-07-17T15:26:45;99164.09;;;32.31;23.30
23118;BME280;11728;50.624;6.014;2022-07-17T15:31:47;99170.84;;;32.27;22.80
23118;BME280;11728;50.624;6.014;2022-07-17T15:37:00;99163.22;;;32.21;23.28
23118;BME280;11728;50.624;6.014;2022-07-17T15:42:17;99161.59;;;32.47;22.44
23118;BME280;11728;50.624;6.014;2022-07-17T15:47:17;99153.50;;;32.45;22.26
23118;BME280;11728;50.624;6.014;2022-07-17T15:52:34;99148.16;;;32.17;22.68
23118;BME280;11728;50.624;6.014;2022-07-17T15:57:48;99153.19;;;31.93;22.36
23118;BME280;11728;50.624;6.014;2022-07-17T16:02:48;99149.19;;;31.69;22.64
23118;BME280;11728;50.624;6.014;2022-07-17T16:08:04;99156.94;;;31.54;22.71
23118;BME280;11728;50.624;6.014;2022-07-17T16:13:23;99144.13;;;31.45;22.96
23118;BME280;11728;50.624;6.014;2022-07-17T16:18:24;99144.97;;;31.27;23.40
23118;BME280;11728;50.624;6.014;2022-07-17T16:23:38;99142.44;;;30.96;22.86
23118;BME280;11728;50.624;6.014;2022-07-17T16:28:50;99146.53;;;30.62;23.56
23118;BME280;11728;50.624;6.014;2022-07-17T16:33:58;99141.44;;;30.48;24.39
23118;BME280;11728;50.624;6.014;2022-07-17T16:39:08;99131.56;;;30.36;24.04
23118;BME280;11728;50.624;6.014;2022-07-17T16:44:24;99120.22;;;30.31;23.55
23118;BME280;11728;50.624;6.014;2022-07-17T16:49:28;99113.66;;;30.13;23.19
23118;BME280;11728;50.624;6.014;2022-07-17T16:54:41;99105.59;;;30.02;23.56
23118;BME280;11728;50.624;6.014;2022-07-17T16:59:57;99103.03;;;29.69;24.57
23118;BME280;11728;50.624;6.014;2022-07-17T17:05:00;99091.75;;;29.54;24.73
23118;BME280;11728;50.624;6.014;2022-07-17T17:10:10;99095.22;;;29.56;24.96
23118;BME280;11728;50.624;6.014;2022-07-17T17:15:30;99094.25;;;29.46;26.11
23118;BME280;11728;50.624;6.014;2022-07-17T17:20:32;99079.19;;;29.10;25.77
23118;BME280;11728;50.624;6.014;2022-07-17T17:25:48;99078.44;;;28.66;26.27
23118;BME280;11728;50.624;6.014;2022-07-17T17:31:00;99085.28;;;28.39;27.40
23118;BME280;11728;50.624;6.014;2022-07-17T17:36:01;99069.22;;;28.14;27.19
23118;BME280;11728;50.624;6.014;2022-07-17T17:41:17;99068.59;;;28.00;27.14
23118;BME280;11728;50.624;6.014;2022-07-17T17:46:36;99068.59;;;28.00;26.79
23118;BME280;11728;50.624;6.014;2022-07-17T17:51:37;99068.09;;;28.05;27.46
23118;BME280;11728;50.624;6.014;2022-07-17T17:56:53;99062.81;;;27.93;27.58
23118;BME280;11728;50.624;6.014;2022-07-17T18:02:05;99059.44;;;27.79;27.10
23118;BME280;11728;50.624;6.014;2022-07-17T18:07:07;99079.94;;;27.61;27.68
23118;BME280;11728;50.624;6.014;2022-07-17T18:12:23;99078.59;;;27.43;27.58
23118;BME280;11728;50.624;6.014;2022-07-17T18:17:36;99080.78;;;27.27;27.65
23118;BME280;11728;50.624;6.014;2022-07-17T18:22:40;99083.13;;;27.21;27.55
23118;BME280;11728;50.624;6.014;2022-07-17T18:27:53;99090.09;;;27.12;27.70
23118;BME280;11728;50.624;6.014;2022-07-17T18:33:08;99086.91;;;26.95;28.31
23118;BME280;11728;50.624;6.014;2022-07-17T18:38:09;99091.91;;;26.88;28.83
23118;BME280;11728;50.624;6.014;2022-07-17T18:43:25;99099.13;;;26.77;29.32
23118;BME280;11728;50.624;6.014;2022-07-17T18:48:41;99090.75;;;26.56;29.86
23118;BME280;11728;50.624;6.014;2022-07-17T18:53:42;99094.81;;;26.39;30.58
23118;BME280;11728;50.624;6.014;2022-07-17T18:58:58;99089.63;;;26.23;30.98
23118;BME280;11728;50.624;6.014;2022-07-17T19:04:14;99097.44;;;26.03;31.98
23118;BME280;11728;50.624;6.014;2022-07-17T19:09:16;99102.56;;;25.82;32.25
23118;BME280;11728;50.624;6.014;2022-07-17T19:14:30;99102.94;;;25.64;32.65
23118;BME280;11728;50.624;6.014;2022-07-17T19:19:42;99098.25;;;25.41;33.14
23118;BME280;11728;50.624;6.014;2022-07-17T19:24:46;99098.78;;;25.21;33.17
23118;BME280;11728;50.624;6.014;2022-07-17T19:29:58;99100.66;;;25.07;34.53
23118;BME280;11728;50.624;6.014;2022-07-17T19:35:14;99110.31;;;24.84;36.26
23118;BME280;11728;50.624;6.014;2022-07-17T19:40:18;99133.78;;;24.58;35.97
23118;BME280;11728;50.624;6.014;2022-07-17T19:45:32;99141.28;;;24.39;36.29
23118;BME280;11728;50.624;6.014;2022-07-17T19:50:44;99136.41;;;24.17;36.99
23118;BME280;11728;50.624;6.014;2022-07-17T19:55:48;99150.56;;;23.93;37.58
23118;BME280;11728;50.624;6.014;2022-07-17T20:01:07;99150.31;;;23.68;37.48
23118;BME280;11728;50.624;6.014;2022-07-17T20:06:17;99159.06;;;23.44;38.03
23118;BME280;11728;50.624;6.014;2022-07-17T20:11:21;99158.88;;;23.18;38.20
23118;BME280;11728;50.624;6.014;2022-07-17T20:16:36;99154.97;;;22.92;38.05
23118;BME280;11728;50.624;6.014;2022-07-17T20:21:50;99151.84;;;22.69;37.95
23118;BME280;11728;50.624;6.014;2022-07-17T20:26:53;99146.91;;;22.46;37.96
23118;BME280;11728;50.624;6.014;2022-07-17T20:32:09;99149.97;;;22.23;38.16
23118;BME280;11728;50.624;6.014;2022-07-17T20:37:22;99156.53;;;22.02;38.95
23118;BME280;11728;50.624;6.014;2022-07-17T20:42:22;99144.97;;;21.85;39.34
23118;BME280;11728;50.624;6.014;2022-07-17T20:47:41;99149.38;;;21.70;39.91
23118;BME280;11728;50.624;6.014;2022-07-17T20:52:54;99152.41;;;21.46;40.50
23118;BME280;11728;50.624;6.014;2022-07-17T20:57:57;99157.88;;;21.28;41.08
23118;BME280;11728;50.624;6.014;2022-07-17T21:03:10;99156.69;;;21.16;41.34
23118;BME280;11728;50.624;6.014;2022-07-17T21:08:26;99153.78;;;21.04;41.49
23118;BME280;11728;50.624;6.014;2022-07-17T21:13:28;99155.19;;;20.94;41.65
23118;BME280;11728;50.624;6.014;2022-07-17T21:18:43;99150.44;;;20.82;42.05
23118;BME280;11728;50.624;6.014;2022-07-17T21:23:55;99156.44;;;20.69;42.31
23118;BME280;11728;50.624;6.014;2022-07-17T21:28:58;99153.47;;;20.56;42.56
23118;BME280;11728;50.624;6.014;2022-07-17T21:34:15;99148.50;;;20.49;42.08
23118;BME280;11728;50.624;6.014;2022-07-17T21:39:31;99145.09;;;20.45;42.42
23118;BME280;11728;50.624;6.014;2022-07-17T21:44:31;99140.97;;;20.38;42.34
23118;BME280;11728;50.624;6.014;2022-07-17T21:49:47;99133.19;;;20.32;42.66
23118;BME280;11728;50.624;6.014;2022-07-17T21:55:03;99131.63;;;20.28;42.49
23118;BME280;11728;50.624;6.014;2022-07-17T22:00:08;99134.72;;;20.19;43.24
23118;BME280;11728;50.624;6.014;2022-07-17T22:05:18;99136.25;;;20.07;43.12
23118;BME280;11728;50.624;6.014;2022-07-17T22:10:34;99135.00;;;19.95;43.31
23118;BME280;11728;50.624;6.014;2022-07-17T22:15:35;99132.34;;;19.95;43.42
23118;BME280;11728;50.624;6.014;2022-07-17T22:20:51;99129.56;;;19.97;42.94
23118;BME280;11728;50.624;6.014;2022-07-17T22:26:01;99123.91;;;20.03;42.60
23118;BME280;11728;50.624;6.014;2022-07-17T22:31:03;99115.53;;;20.10;42.20
23118;BME280;11728;50.624;6.014;2022-07-17T22:36:18;99106.44;;;20.12;42.13
23118;BME280;11728;50.624;6.014;2022-07-17T22:41:34;99114.63;;;20.09;41.79
23118;BME280;11728;50.624;6.014;2022-07-17T22:46:37;99107.59;;;20.07;41.82
23118;BME280;11728;50.624;6.014;2022-07-17T22:51:50;99100.44;;;20.08;41.61
23118;BME280;11728;50.624;6.014;2022-07-17T22:57:05;99100.28;;;20.10;41.47
23118;BME280;11728;50.624;6.014;2022-07-17T23:02:06;99095.19;;;20.23;40.81
23118;BME280;11728;50.624;6.014;2022-07-17T23:07:25;99081.47;;;20.29;40.65
23118;BME280;11728;50.624;6.014;2022-07-17T23:12:38;99080.00;;;20.23;40.42
23118;BME280;11728;50.624;6.014;2022-07-17T23:17:42;99073.81;;;20.21;40.26
23118;BME280;11728;50.624;6.014;2022-07-17T23:22:58;99078.38;;;20.19;40.27
23118;BME280;11728;50.624;6.014;2022-07-17T23:28:07;99078.69;;;20.13;40.45
23118;BME280;11728;50.624;6.014;2022-07-17T23:33:14;99074.34;;;20.11;40.50
23118;BME280;11728;50.624;6.014;2022-07-17T23:38:29;99070.84;;;20.09;40.33
23118;BME280;11728;50.624;6.014;2022-07-17T23:43:45;99076.34;;;20.06;40.40
23118;BME280;11728;50.624;6.014;2022-07-17T23:48:45;99077.53;;;20.01;40.67
23118;BME280;11728;50.624;6.014;2022-07-17T23:53:58;99070.56;;;19.97;40.52
23118;BME280;11728;50.624;6.014;2022-07-17T23:59:14;99063.41;;;19.97;40.06
